Time;durP1;ratioP1;P1;durP2;ratioP2;P2;SDS_P1;SDS_P2;PMS_P1;PMS_P2;Temp;Humidity;BMP_temperature;BMP_pressure;BME280_temperature;BME280_humidity;BME280_pressure;Samples;Min_cycle;Max_cycle;Signal;HPM_P1;HPM_P2
2022/04/16 00:01:52;;;;;;;;;;;20.40;43.00;;;;;;5071530;28;20012;-51
2022/04/16 00:04:19;;;;;;;;;;;20.40;43.00;;;;;;5070771;28;19932;-55
2022/04/16 00:06:47;;;;;;;;;;;20.40;43.00;;;;;;5073852;28;20019;-51
2022/04/16 00:09:14;;;;;;;;;;;20.40;43.00;;;;;;5092413;28;20289;-48
2022/04/16 00:11:41;;;;;;;;;;;20.40;43.00;;;;;;5094851;28;20269;-47
2022/04/16 00:14:08;;;;;;;;;;;20.40;43.00;;;;;;5089208;28;20365;-53
2022/04/16 00:16:34;;;;;;;;;;;20.40;43.00;;;;;;5087908;28;20020;-48
2022/04/16 00:19:02;;;;;;;;;;;20.40;43.00;;;;;;5088601;28;19963;-50
2022/04/16 00:21:28;;;;;;;;;;;20.40;43.00;;;;;;5076116;28;19920;-53
2022/04/16 00:23:57;;;;;;;;;;;20.40;43.00;;;;;;5077178;28;19925;-47
2022/04/16 00:26:24;;;;;;;;;;;20.40;43.00;;;;;;5072811;28;19943;-51
2022/04/16 00:28:51;;;;;;;;;;;20.40;42.90;;;;;;5091912;28;19975;-49
2022/04/16 00:31:17;;;;;;;;;;;20.40;42.90;;;;;;5090338;28;19927;-49
2022/04/16 00:33:46;;;;;;;;;;;20.40;42.90;;;;;;5069244;28;19920;-50
2022/04/16 00:36:13;;;;;;;;;;;20.40;42.90;;;;;;5069004;28;19928;-52
2022/04/16 00:38:40;;;;;;;;;;;20.40;42.90;;;;;;5072575;28;19921;-51
2022/04/16 00:41:08;;;;;;;;;;;20.40;42.90;;;;;;5090398;28;19924;-50
2022/04/16 00:43:35;;;;;;;;;;;20.40;42.80;;;;;;5073640;28;19921;-50
2022/04/16 00:46:02;;;;;;;;;;;20.40;42.80;;;;;;5072303;28;19920;-51
2022/04/16 00:48:29;;;;;;;;;;;20.40;42.80;;;;;;5076345;28;19920;-53
2022/04/16 00:50:55;;;;;;;;;;;20.40;42.80;;;;;;5068890;28;19980;-47
2022/04/16 00:53:25;;;;;;;;;;;20.40;42.80;;;;;;5069482;28;19983;-49
2022/04/16 00:55:52;;;;;;;;;;;20.40;42.80;;;;;;5071601;28;19932;-47
2022/04/16 00:58:20;;;;;;;;;;;20.40;42.70;;;;;;5091248;28;19931;-47
2022/04/16 01:00:48;;;;;;;;;;;20.40;42.70;;;;;;5075455;28;20369;-46
2022/04/16 01:03:14;;;;;;;;;;;20.40;42.70;;;;;;5066337;28;19955;-49
2022/04/16 01:05:41;;;;;;;;;;;20.40;42.70;;;;;;5073628;28;19924;-49
2022/04/16 01:08:08;;;;;;;;;;;20.40;42.70;;;;;;5073295;28;19921;-51
2022/04/16 01:10:35;;;;;;;;;;;20.40;42.60;;;;;;5092876;28;19936;-52
2022/04/16 01:13:02;;;;;;;;;;;20.40;42.60;;;;;;5088253;28;19948;-52
2022/04/16 01:15:31;;;;;;;;;;;20.40;42.60;;;;;;5071700;28;19985;-49
2022/04/16 01:18:02;;;;;;;;;;;20.40;42.60;;;;;;5071803;28;19924;-52
2022/04/16 01:20:28;;;;;;;;;;;20.40;42.60;;;;;;5066531;28;19960;-46
2022/04/16 01:22:58;;;;;;;;;;;20.40;42.50;;;;;;5074047;28;20273;-47
2022/04/16 01:25:26;;;;;;;;;;;20.40;42.50;;;;;;5072398;28;19959;-49
2022/04/16 01:27:53;;;;;;;;;;;20.40;42.50;;;;;;5073080;28;19924;-49
2022/04/16 01:30:21;;;;;;;;;;;20.40;42.50;;;;;;5071268;28;19950;-52
2022/04/16 01:32:48;;;;;;;;;;;20.40;42.50;;;;;;5072502;28;19925;-51
2022/04/16 01:35:15;;;;;;;;;;;20.40;42.50;;;;;;5089751;28;19925;-50
2022/04/16 01:37:45;;;;;;;;;;;20.40;42.50;;;;;;5087103;28;19924;-48
2022/04/16 01:40:14;;;;;;;;;;;20.40;42.50;;;;;;5070505;28;19971;-51
2022/04/16 01:42:41;;;;;;;;;;;20.40;42.50;;;;;;5096348;28;20337;-50
2022/04/16 01:45:09;;;;;;;;;;;20.40;42.40;;;;;;5069495;28;19931;-50
2022/04/16 01:47:36;;;;;;;;;;;20.40;42.40;;;;;;5062927;28;19988;-50
2022/04/16 01:50:06;;;;;;;;;;;20.40;42.40;;;;;;5085783;28;19982;-49
2022/04/16 01:52:33;;;;;;;;;;;20.40;42.40;;;;;;5073002;28;19991;-52
2022/04/16 01:55:00;;;;;;;;;;;20.30;42.30;;;;;;5068317;28;19967;-47
2022/04/16 01:57:28;;;;;;;;;;;20.40;42.40;;;;;;5075393;28;19924;-49
2022/04/16 01:59:56;;;;;;;;;;;20.40;42.40;;;;;;5074958;28;20282;-50
2022/04/16 02:02:22;;;;;;;;;;;20.30;42.30;;;;;;5072563;28;19947;-55
2022/04/16 02:04:51;;;;;;;;;;;20.40;42.40;;;;;;5096346;28;20381;-46
2022/04/16 02:07:18;;;;;;;;;;;20.30;42.20;;;;;;5094100;28;19979;-49
2022/04/16 02:09:45;;;;;;;;;;;20.40;42.30;;;;;;5077307;28;19959;-49
2022/04/16 02:12:13;;;;;;;;;;;20.40;42.30;;;;;;5080641;28;20388;-51
2022/04/16 02:14:41;;;;;;;;;;;20.30;42.20;;;;;;5094239;28;19927;-52
2022/04/16 02:17:08;;;;;;;;;;;20.40;42.30;;;;;;5095528;28;19991;-46
2022/04/16 02:19:36;;;;;;;;;;;20.30;42.20;;;;;;5090176;28;19942;-49
2022/04/16 02:22:03;;;;;;;;;;;20.30;42.20;;;;;;5087630;28;19935;-49
2022/04/16 02:24:30;;;;;;;;;;;20.30;42.20;;;;;;5088810;28;19928;-50
2022/04/16 02:26:58;;;;;;;;;;;20.30;42.20;;;;;;5076953;28;20365;-52
2022/04/16 02:29:25;;;;;;;;;;;20.30;42.20;;;;;;5073211;28;19956;-52
2022/04/16 02:31:53;;;;;;;;;;;20.30;42.20;;;;;;5076500;28;19927;-49
2022/04/16 02:34:20;;;;;;;;;;;20.30;42.20;;;;;;5088590;28;20443;-47
2022/04/16 02:36:48;;;;;;;;;;;20.40;42.30;;;;;;5078117;28;20015;-51
2022/04/16 02:39:15;;;;;;;;;;;20.30;42.10;;;;;;5090719;28;19928;-49
2022/04/16 02:41:42;;;;;;;;;;;20.40;42.20;;;;;;5092292;28;19920;-48
2022/04/16 02:47:05;;;;;;;;;;;20.40;42.20;;;;;;5076926;28;19920;-50
2022/04/16 02:47:06;;;;;;;;;;;20.40;42.20;;;;;;5074765;28;19956;-52
2022/04/16 02:49:34;;;;;;;;;;;20.30;42.10;;;;;;5089402;28;19931;-50
2022/04/16 02:52:01;;;;;;;;;;;20.30;42.00;;;;;;5089128;28;19927;-48
2022/04/16 02:54:28;;;;;;;;;;;20.40;42.20;;;;;;5074286;28;20285;-46
2022/04/16 02:56:54;;;;;;;;;;;20.30;42.00;;;;;;5072306;28;19933;-48
2022/04/16 02:59:21;;;;;;;;;;;20.30;42.00;;;;;;5075993;28;20971;-47
2022/04/16 03:01:48;;;;;;;;;;;20.30;42.00;;;;;;5073016;28;19921;-48
2022/04/16 03:04:17;;;;;;;;;;;20.40;42.10;;;;;;5071073;28;19921;-49
2022/04/16 03:06:44;;;;;;;;;;;20.30;42.00;;;;;;5073211;28;19954;-53
2022/04/16 03:09:11;;;;;;;;;;;20.30;42.00;;;;;;5071957;28;19949;-46
2022/04/16 03:11:38;;;;;;;;;;;20.30;42.00;;;;;;5090042;28;19927;-52
2022/04/16 03:19:31;;;;;;;;;;;20.30;41.90;;;;;;5075584;28;19929;-51
2022/04/16 03:21:58;;;;;;;;;;;20.30;41.90;;;;;;5073488;28;19939;-51
2022/04/16 03:24:25;;;;;;;;;;;20.30;41.90;;;;;;5075687;28;19987;-49
2022/04/16 03:26:52;;;;;;;;;;;20.30;41.90;;;;;;5075512;28;19924;-51
2022/04/16 03:29:19;;;;;;;;;;;20.30;41.90;;;;;;5066737;28;19931;-51
2022/04/16 03:31:46;;;;;;;;;;;20.30;41.90;;;;;;5084339;28;19921;-50
2022/04/16 03:34:13;;;;;;;;;;;20.30;41.90;;;;;;5089893;28;19959;-48
2022/04/16 03:36:41;;;;;;;;;;;20.30;41.80;;;;;;5069013;28;19924;-51
2022/04/16 03:39:08;;;;;;;;;;;20.30;41.80;;;;;;5071978;28;19921;-53
2022/04/16 03:41:34;;;;;;;;;;;20.30;41.90;;;;;;5071894;28;19920;-49
2022/04/16 03:44:01;;;;;;;;;;;20.30;41.80;;;;;;5090188;28;19948;-50
2022/04/16 03:46:29;;;;;;;;;;;20.30;41.80;;;;;;5086484;28;20008;-54
2022/04/16 03:48:55;;;;;;;;;;;20.30;41.70;;;;;;5090875;28;19924;-49
2022/04/16 03:51:22;;;;;;;;;;;20.30;41.70;;;;;;5072414;28;19966;-47
2022/04/16 03:53:50;;;;;;;;;;;20.30;41.70;;;;;;5082964;28;20412;-48
2022/04/16 04:01:45;;;;;;;;;;;20.30;41.70;;;;;;5068058;28;19920;-52
2022/04/16 04:04:12;;;;;;;;;;;20.30;41.70;;;;;;5068663;28;19927;-52
2022/04/16 04:06:40;;;;;;;;;;;20.30;41.70;;;;;;5089918;28;19928;-52
2022/04/16 04:09:08;;;;;;;;;;;20.30;41.70;;;;;;5087768;28;19925;-49
2022/04/16 04:11:34;;;;;;;;;;;20.30;41.60;;;;;;5081640;28;19920;-52
2022/04/16 04:14:01;;;;;;;;;;;20.30;41.60;;;;;;5072027;28;20384;-52
2022/04/16 04:16:28;;;;;;;;;;;20.30;41.60;;;;;;5069402;28;20011;-51
2022/04/16 04:18:54;;;;;;;;;;;20.30;41.60;;;;;;5073506;28;19979;-50
2022/04/16 04:21:21;;;;;;;;;;;20.30;41.60;;;;;;5074076;28;19924;-51
2022/04/16 04:23:48;;;;;;;;;;;20.30;41.60;;;;;;5087735;28;19943;-50
2022/04/16 04:26:16;;;;;;;;;;;20.30;41.60;;;;;;5073920;28;20015;-49
2022/04/16 04:28:43;;;;;;;;;;;20.30;41.60;;;;;;5072276;28;19928;-50
2022/04/16 04:31:10;;;;;;;;;;;20.30;41.50;;;;;;5087539;28;19976;-54
2022/04/16 04:33:37;;;;;;;;;;;20.30;41.50;;;;;;5082483;28;20011;-51
2022/04/16 04:36:04;;;;;;;;;;;20.30;42.10;;;;;;5089494;28;19952;-47
2022/04/16 04:38:30;;;;;;;;;;;20.30;41.50;;;;;;5070137;28;20012;-54
2022/04/16 04:40:58;;;;;;;;;;;20.30;41.50;;;;;;5070436;28;19925;-52
2022/04/16 04:43:27;;;;;;;;;;;20.30;41.50;;;;;;5084371;28;19932;-50
2022/04/16 04:45:54;;;;;;;;;;;20.30;41.40;;;;;;5072274;28;20032;-50
2022/04/16 04:48:20;;;;;;;;;;;20.30;41.40;;;;;;5064705;28;20257;-49
2022/04/16 04:50:47;;;;;;;;;;;20.30;41.40;;;;;;5068893;28;19983;-55
2022/04/16 04:53:14;;;;;;;;;;;20.30;41.40;;;;;;5074130;28;20015;-51
2022/04/16 04:55:41;;;;;;;;;;;20.30;41.40;;;;;;5073665;28;19921;-48
2022/04/16 04:58:07;;;;;;;;;;;20.30;41.40;;;;;;5076564;28;19939;-53
2022/04/16 05:00:36;;;;;;;;;;;20.30;41.40;;;;;;5072596;28;20101;-53
2022/04/16 05:03:02;;;;;;;;;;;20.30;41.40;;;;;;5072970;28;19920;-52
2022/04/16 05:05:29;;;;;;;;;;;20.30;41.40;;;;;;5071315;28;19943;-47
2022/04/16 05:07:56;;;;;;;;;;;20.30;41.30;;;;;;5086204;28;19978;-49
2022/04/16 05:10:23;;;;;;;;;;;20.30;41.90;;;;;;5075496;28;20353;-52
2022/04/16 05:12:49;;;;;;;;;;;20.20;41.30;;;;;;5073508;28;20404;-49
2022/04/16 05:15:16;;;;;;;;;;;20.30;41.30;;;;;;5064064;28;20428;-52
2022/04/16 05:17:44;;;;;;;;;;;20.30;41.30;;;;;;5072650;28;20749;-53
2022/04/16 05:20:11;;;;;;;;;;;20.30;41.30;;;;;;5081524;28;19928;-52
2022/04/16 05:22:38;;;;;;;;;;;20.30;41.30;;;;;;5087453;28;19927;-48
2022/04/16 05:25:05;;;;;;;;;;;20.30;41.30;;;;;;5075723;28;19920;-46
2022/04/16 05:27:34;;;;;;;;;;;20.30;41.30;;;;;;5068906;28;19933;-46
2022/04/16 05:30:12;;;;;;;;;;;20.30;41.20;;;;;;5070287;28;19974;-47
2022/04/16 05:32:40;;;;;;;;;;;20.30;41.20;;;;;;5073768;28;20219;-46
2022/04/16 05:35:08;;;;;;;;;;;20.30;41.20;;;;;;5075086;28;19933;-49
2022/04/16 05:37:35;;;;;;;;;;;20.30;41.20;;;;;;5075632;28;19956;-46
2022/04/16 05:40:02;;;;;;;;;;;20.30;41.20;;;;;;5079841;28;19926;-50
2022/04/16 05:42:29;;;;;;;;;;;20.30;41.20;;;;;;5078418;28;19970;-46
2022/04/16 05:45:00;;;;;;;;;;;20.30;41.20;;;;;;5092261;28;20007;-50
2022/04/16 05:47:27;;;;;;;;;;;20.30;41.20;;;;;;5077477;28;19931;-48
2022/04/16 05:49:54;;;;;;;;;;;20.30;41.20;;;;;;5092505;28;19989;-48
2022/04/16 05:52:22;;;;;;;;;;;20.30;41.20;;;;;;5074302;28;20497;-49
2022/04/16 05:54:49;;;;;;;;;;;20.30;41.20;;;;;;5075606;28;19991;-50
2022/04/16 05:57:17;;;;;;;;;;;20.30;41.20;;;;;;5074251;28;19963;-50
2022/04/16 05:59:43;;;;;;;;;;;20.30;41.20;;;;;;5072402;28;20396;-45
2022/04/16 06:02:11;;;;;;;;;;;20.30;41.20;;;;;;5078179;28;20031;-45
2022/04/16 06:04:37;;;;;;;;;;;20.30;41.20;;;;;;5076141;28;20281;-47
2022/04/16 06:07:05;;;;;;;;;;;20.30;41.20;;;;;;5078078;28;19924;-55
2022/04/16 06:09:33;;;;;;;;;;;20.30;41.10;;;;;;5075360;28;19932;-48
2022/04/16 06:12:01;;;;;;;;;;;20.30;41.10;;;;;;5075677;28;20010;-49
2022/04/16 06:14:28;;;;;;;;;;;20.30;41.10;;;;;;5078570;28;19928;-48
2022/04/16 06:16:55;;;;;;;;;;;20.30;41.10;;;;;;5077735;28;19921;-48
2022/04/16 06:19:22;;;;;;;;;;;20.30;41.10;;;;;;5095201;28;19997;-49
2022/04/16 06:21:48;;;;;;;;;;;20.30;41.10;;;;;;5081882;28;20007;-51
2022/04/16 06:24:15;;;;;;;;;;;20.30;41.10;;;;;;5082677;28;19955;-49
2022/04/16 06:26:45;;;;;;;;;;;20.30;41.10;;;;;;5071730;28;19931;-47
2022/04/16 06:29:11;;;;;;;;;;;20.30;41.10;;;;;;5076306;28;19966;-49
2022/04/16 06:31:39;;;;;;;;;;;20.30;41.10;;;;;;5073998;28;19987;-53
2022/04/16 06:34:05;;;;;;;;;;;20.30;41.10;;;;;;5069930;28;19921;-50
2022/04/16 06:36:32;;;;;;;;;;;20.30;41.10;;;;;;5089417;28;20016;-49
2022/04/16 06:38:59;;;;;;;;;;;20.30;41.10;;;;;;5074576;28;19920;-51
2022/04/16 06:41:26;;;;;;;;;;;20.30;41.20;;;;;;5071211;28;19986;-49
2022/04/16 06:43:54;;;;;;;;;;;20.30;41.10;;;;;;5068912;28;19921;-51
2022/04/16 06:46:22;;;;;;;;;;;20.30;41.20;;;;;;5065932;28;20269;-52
2022/04/16 06:48:49;;;;;;;;;;;20.30;41.10;;;;;;5059150;28;19921;-49
2022/04/16 06:51:15;;;;;;;;;;;20.30;41.10;;;;;;5054346;28;19921;-51
2022/04/16 06:53:43;;;;;;;;;;;20.30;41.10;;;;;;5067782;28;20009;-52
2022/04/16 06:56:10;;;;;;;;;;;20.30;41.00;;;;;;5085466;28;19926;-51
2022/04/16 06:58:36;;;;;;;;;;;20.30;41.10;;;;;;5057800;28;19921;-47
2022/04/16 07:01:05;;;;;;;;;;;20.30;41.00;;;;;;5084420;28;19932;-48
2022/04/16 07:03:31;;;;;;;;;;;20.30;41.00;;;;;;5063393;28;19928;-49
2022/04/16 07:05:58;;;;;;;;;;;20.30;41.00;;;;;;5059489;28;19943;-54
2022/04/16 07:08:25;;;;;;;;;;;20.30;41.00;;;;;;5067125;28;19964;-47
2022/04/16 07:10:51;;;;;;;;;;;20.30;41.00;;;;;;5067986;28;19925;-51
2022/04/16 07:13:18;;;;;;;;;;;20.30;41.00;;;;;;5077717;28;19920;-48
2022/04/16 07:15:45;;;;;;;;;;;20.30;41.10;;;;;;5072693;28;19987;-53
2022/04/16 07:18:13;;;;;;;;;;;20.30;41.10;;;;;;5064693;28;19928;-50
2022/04/16 07:20:40;;;;;;;;;;;20.30;41.10;;;;;;5066644;28;20407;-50
2022/04/16 07:23:07;;;;;;;;;;;20.30;41.10;;;;;;5069104;28;20362;-47
2022/04/16 07:25:34;;;;;;;;;;;20.30;41.10;;;;;;5069205;28;19955;-48
2022/04/16 07:28:01;;;;;;;;;;;20.40;41.10;;;;;;5071815;28;19966;-47
2022/04/16 07:30:28;;;;;;;;;;;20.40;41.10;;;;;;5059515;28;19924;-50
2022/04/16 07:32:55;;;;;;;;;;;20.40;41.00;;;;;;5059983;28;19933;-50
2022/04/16 07:35:26;;;;;;;;;;;20.30;40.90;;;;;;5082995;28;19924;-50
2022/04/16 07:37:56;;;;;;;;;;;20.40;41.00;;;;;;5060576;28;20422;-53
2022/04/16 07:40:24;;;;;;;;;;;20.30;40.80;;;;;;5072603;28;19930;-51
2022/04/16 07:42:51;;;;;;;;;;;20.30;40.80;;;;;;5060997;28;20027;-51
2022/04/16 07:45:17;;;;;;;;;;;20.40;40.90;;;;;;5071859;28;19967;-56
2022/04/16 07:47:44;;;;;;;;;;;20.30;40.80;;;;;;5086546;28;20353;-53
2022/04/16 07:50:11;;;;;;;;;;;20.30;40.70;;;;;;5091981;28;19931;-51
2022/04/16 07:52:39;;;;;;;;;;;20.40;40.80;;;;;;5084487;28;19920;-51
2022/04/16 07:55:07;;;;;;;;;;;20.40;40.80;;;;;;5071965;28;19921;-52
2022/04/16 07:57:33;;;;;;;;;;;20.30;40.70;;;;;;5078016;28;20255;-53
2022/04/16 08:00:00;;;;;;;;;;;20.30;40.70;;;;;;5063973;28;20273;-54
2022/04/16 08:02:27;;;;;;;;;;;20.30;40.70;;;;;;5079919;28;20381;-49
2022/04/16 08:04:54;;;;;;;;;;;20.40;40.70;;;;;;5076718;28;19921;-55
2022/04/16 08:07:20;;;;;;;;;;;20.30;40.60;;;;;;5079688;28;20282;-53
2022/04/16 08:09:49;;;;;;;;;;;20.30;40.60;;;;;;5072943;28;19927;-55
2022/04/16 08:12:16;;;;;;;;;;;20.30;40.70;;;;;;5077496;28;19921;-47
2022/04/16 08:14:42;;;;;;;;;;;20.30;40.70;;;;;;5079016;28;19933;-53
2022/04/16 08:17:09;;;;;;;;;;;20.30;40.70;;;;;;5090869;28;19920;-58
2022/04/16 08:19:36;;;;;;;;;;;20.30;40.70;;;;;;5084139;28;20330;-54
2022/04/16 08:22:06;;;;;;;;;;;20.30;40.70;;;;;;5082787;28;20451;-54
2022/04/16 08:24:41;;;;;;;;;;;20.40;40.50;;;;;;5066685;28;20247;-53
2022/04/16 08:27:09;;;;;;;;;;;20.30;39.90;;;;;;5068310;28;20270;-50
2022/04/16 08:29:37;;;;;;;;;;;20.30;39.50;;;;;;5068987;28;19974;-55
2022/04/16 08:32:05;;;;;;;;;;;20.30;39.00;;;;;;5074739;28;19924;-55
2022/04/16 08:34:32;;;;;;;;;;;20.30;38.60;;;;;;5066190;28;19932;-52
2022/04/16 08:36:59;;;;;;;;;;;20.30;38.40;;;;;;5058978;28;19920;-51
2022/04/16 08:39:27;;;;;;;;;;;20.30;38.30;;;;;;5069764;28;20468;-52
2022/04/16 08:41:53;;;;;;;;;;;20.20;38.10;;;;;;5076365;28;20023;-53
2022/04/16 08:44:21;;;;;;;;;;;20.20;38.00;;;;;;5061109;28;19924;-48
2022/04/16 08:46:48;;;;;;;;;;;20.20;37.90;;;;;;5052939;28;19920;-52
2022/04/16 08:49:15;;;;;;;;;;;20.20;37.70;;;;;;5077121;28;19925;-51
2022/04/16 08:51:42;;;;;;;;;;;20.20;37.70;;;;;;5055399;28;19924;-53
2022/04/16 08:54:09;;;;;;;;;;;20.20;37.60;;;;;;5066766;28;19956;-50
2022/04/16 08:56:36;;;;;;;;;;;20.20;37.60;;;;;;5066324;28;20396;-53
2022/04/16 08:59:02;;;;;;;;;;;20.10;37.30;;;;;;5063643;28;20297;-52
2022/04/16 09:01:31;;;;;;;;;;;20.10;37.20;;;;;;5059113;28;19927;-53
2022/04/16 09:03:59;;;;;;;;;;;20.10;37.20;;;;;;5062300;28;20015;-52
2022/04/16 09:06:25;;;;;;;;;;;20.10;37.10;;;;;;5063689;28;19928;-49
2022/04/16 09:08:52;;;;;;;;;;;20.10;37.00;;;;;;5061279;28;19924;-52
2022/04/16 09:11:21;;;;;;;;;;;20.10;36.90;;;;;;5060177;28;19940;-57
2022/04/16 09:13:51;;;;;;;;;;;20.10;36.90;;;;;;5069687;28;20010;-56
2022/04/16 09:16:19;;;;;;;;;;;20.10;36.90;;;;;;5070143;28;19921;-54
2022/04/16 09:18:50;;;;;;;;;;;20.10;36.90;;;;;;5087058;28;19927;-52
2022/04/16 09:21:17;;;;;;;;;;;20.10;36.80;;;;;;5077167;28;19920;-57
2022/04/16 09:23:49;;;;;;;;;;;20.10;36.70;;;;;;5072745;28;20360;-53
2022/04/16 09:26:25;;;;;;;;;;;20.00;36.60;;;;;;5068200;28;19927;-56
2022/04/16 09:28:52;;;;;;;;;;;20.00;36.70;;;;;;5064621;28;19990;-55
2022/04/16 09:31:19;;;;;;;;;;;20.00;36.60;;;;;;5061670;28;19920;-53
2022/04/16 09:33:46;;;;;;;;;;;20.00;36.40;;;;;;5066018;28;19932;-49
2022/04/16 09:36:23;;;;;;;;;;;20.00;36.30;;;;;;5081750;28;20277;-51
2022/04/16 09:38:49;;;;;;;;;;;20.00;36.20;;;;;;5058726;28;19966;-57
2022/04/16 09:41:16;;;;;;;;;;;20.00;36.10;;;;;;5073214;28;19983;-54
2022/04/16 09:43:43;;;;;;;;;;;20.00;36.10;;;;;;5066436;28;19927;-53
2022/04/16 09:46:10;;;;;;;;;;;20.00;36.10;;;;;;5070882;28;20358;-54
2022/04/16 09:48:37;;;;;;;;;;;20.00;36.00;;;;;;5061461;28;20324;-52
2022/04/16 09:51:04;;;;;;;;;;;20.00;36.00;;;;;;5066074;28;20352;-54
2022/04/16 09:53:32;;;;;;;;;;;20.00;36.00;;;;;;5065052;28;20377;-54
2022/04/16 09:55:59;;;;;;;;;;;20.00;36.00;;;;;;5056947;28;20336;-54
2022/04/16 09:58:26;;;;;;;;;;;20.00;35.90;;;;;;5079390;28;19921;-52
2022/04/16 10:00:53;;;;;;;;;;;19.90;35.80;;;;;;5063428;28;20006;-53
2022/04/16 10:03:20;;;;;;;;;;;20.00;35.90;;;;;;5060404;28;20003;-52
2022/04/16 10:05:47;;;;;;;;;;;19.90;35.80;;;;;;5066135;28;20334;-52
2022/04/16 10:08:14;;;;;;;;;;;19.90;35.80;;;;;;5055367;28;19932;-54
2022/04/16 10:10:46;;;;;;;;;;;19.90;35.80;;;;;;5062916;28;20321;-52
2022/04/16 10:13:15;;;;;;;;;;;20.00;35.80;;;;;;5057609;28;20476;-57
2022/04/16 10:15:43;;;;;;;;;;;20.00;35.70;;;;;;5068136;28;19924;-54
2022/04/16 10:18:10;;;;;;;;;;;19.90;35.60;;;;;;5055288;28;20374;-56
2022/04/16 10:20:37;;;;;;;;;;;19.90;35.60;;;;;;5064399;28;20050;-54
2022/04/16 10:23:05;;;;;;;;;;;19.90;35.60;;;;;;5072118;28;20350;-56
2022/04/16 10:25:34;;;;;;;;;;;19.90;35.60;;;;;;5061706;28;19920;-56
2022/04/16 10:28:03;;;;;;;;;;;19.90;35.60;;;;;;5067534;28;19925;-55
2022/04/16 10:30:35;;;;;;;;;;;19.90;35.70;;;;;;5074541;28;19966;-53
2022/04/16 10:33:03;;;;;;;;;;;19.90;35.70;;;;;;5052004;28;19962;-54
2022/04/16 10:35:30;;;;;;;;;;;19.90;35.70;;;;;;5065262;28;19920;-56
2022/04/16 10:37:57;;;;;;;;;;;19.90;35.70;;;;;;5063544;28;19920;-54
2022/04/16 10:40:25;;;;;;;;;;;19.90;35.80;;;;;;5081968;28;20007;-54
2022/04/16 10:42:52;;;;;;;;;;;19.90;35.90;;;;;;5084949;28;19974;-54
2022/04/16 10:45:20;;;;;;;;;;;19.90;34.40;;;;;;5066121;28;20277;-54
2022/04/16 10:47:47;;;;;;;;;;;19.90;32.30;;;;;;5086409;28;20039;-52
2022/04/16 10:50:15;;;;;;;;;;;19.80;32.30;;;;;;5061116;28;19925;-55
2022/04/16 10:52:52;;;;;;;;;;;19.70;32.50;;;;;;5068901;28;19979;-54
2022/04/16 10:55:20;;;;;;;;;;;19.70;32.10;;;;;;5077426;28;20293;-49
2022/04/16 10:57:55;;;;;;;;;;;19.60;31.40;;;;;;5078840;28;19925;-51
2022/04/16 11:00:25;;;;;;;;;;;19.60;31.90;;;;;;5063238;28;19964;-52
2022/04/16 11:02:52;;;;;;;;;;;19.50;32.40;;;;;;5057860;28;20367;-53
2022/04/16 11:05:18;;;;;;;;;;;19.50;32.90;;;;;;5064914;28;19932;-52
2022/04/16 11:07:46;;;;;;;;;;;19.50;33.20;;;;;;5063842;28;19967;-57
2022/04/16 11:10:14;;;;;;;;;;;19.60;33.50;;;;;;5061666;28;20015;-55
2022/04/16 11:12:41;;;;;;;;;;;19.50;33.70;;;;;;5067108;28;19932;-58
2022/04/16 11:15:08;;;;;;;;;;;19.50;33.80;;;;;;5067790;28;20238;-53
2022/04/16 11:17:36;;;;;;;;;;;19.60;34.10;;;;;;5065111;28;19966;-53
2022/04/16 11:20:06;;;;;;;;;;;19.60;34.10;;;;;;5059948;28;19936;-46
2022/04/16 11:22:33;;;;;;;;;;;19.60;34.10;;;;;;5055881;28;20242;-51
2022/04/16 11:25:00;;;;;;;;;;;19.60;34.40;;;;;;5079310;28;19920;-55
2022/04/16 11:35:54;;;;;;;;;;;19.70;34.90;;;;;;5059641;28;19981;-55
2022/04/16 11:38:25;;;;;;;;;;;19.70;35.00;;;;;;5065528;28;20019;-54
2022/04/16 11:40:54;;;;;;;;;;;19.70;35.00;;;;;;5080768;28;22580;-55
2022/04/16 11:43:22;;;;;;;;;;;19.70;35.10;;;;;;5061664;28;20366;-59
2022/04/16 11:45:49;;;;;;;;;;;19.70;35.00;;;;;;5073907;28;20370;-57
2022/04/16 11:48:17;;;;;;;;;;;19.80;35.10;;;;;;5080637;28;19921;-56
2022/04/16 11:50:44;;;;;;;;;;;19.80;35.20;;;;;;5063440;28;19928;-59
2022/04/16 11:53:11;;;;;;;;;;;19.80;35.20;;;;;;5062314;28;19952;-49
2022/04/16 11:55:44;;;;;;;;;;;19.80;35.20;;;;;;5066181;28;19927;-54
2022/04/16 11:58:11;;;;;;;;;;;19.80;35.30;;;;;;5080520;28;20227;-50
2022/04/16 12:00:38;;;;;;;;;;;19.80;35.30;;;;;;5064763;28;19925;-54
2022/04/16 12:03:04;;;;;;;;;;;19.80;35.30;;;;;;5076562;28;20073;-52
2022/04/16 12:05:33;;;;;;;;;;;19.80;35.30;;;;;;5059110;28;19968;-57
2022/04/16 12:08:00;;;;;;;;;;;19.80;35.30;;;;;;5062491;28;20079;-56
2022/04/16 12:10:28;;;;;;;;;;;19.80;35.30;;;;;;5062952;28;20382;-54
2022/04/16 12:12:56;;;;;;;;;;;19.80;35.40;;;;;;5062333;28;20361;-57
2022/04/16 12:15:23;;;;;;;;;;;19.80;35.40;;;;;;5079347;28;19944;-58
2022/04/16 12:17:50;;;;;;;;;;;19.90;35.50;;;;;;5062252;28;19939;-58
2022/04/16 12:20:17;;;;;;;;;;;19.90;35.40;;;;;;5066163;28;20023;-56
2022/04/16 12:22:49;;;;;;;;;;;19.90;35.50;;;;;;5079702;28;19924;-54
2022/04/16 12:25:16;;;;;;;;;;;19.90;35.50;;;;;;5083162;28;19946;-59
2022/04/16 12:27:46;;;;;;;;;;;19.90;35.40;;;;;;5066125;28;19921;-56
2022/04/16 12:30:13;;;;;;;;;;;19.90;35.40;;;;;;5059185;28;20004;-57
2022/04/16 12:32:40;;;;;;;;;;;19.90;35.40;;;;;;5065395;28;20065;-56
2022/04/16 12:35:07;;;;;;;;;;;19.90;35.40;;;;;;5081899;28;19920;-54
2022/04/16 12:37:34;;;;;;;;;;;19.90;35.40;;;;;;5063813;28;20057;-58
2022/04/16 12:40:02;;;;;;;;;;;19.90;35.40;;;;;;5056890;28;19933;-56
2022/04/16 12:42:29;;;;;;;;;;;19.90;35.40;;;;;;5060729;28;19936;-55
2022/04/16 12:44:56;;;;;;;;;;;19.90;35.30;;;;;;5074887;28;19924;-51
2022/04/16 12:47:23;;;;;;;;;;;19.90;35.30;;;;;;5052381;28;19995;-59
2022/04/16 12:49:49;;;;;;;;;;;19.90;35.30;;;;;;5060745;28;19960;-56
2022/04/16 12:52:16;;;;;;;;;;;19.90;34.50;;;;;;5077183;28;19920;-58
2022/04/16 12:54:43;;;;;;;;;;;19.90;32.20;;;;;;5056427;28;19925;-55
2022/04/16 12:57:11;;;;;;;;;;;19.80;31.50;;;;;;5053797;28;19978;-53
2022/04/16 12:59:49;;;;;;;;;;;19.80;30.80;;;;;;5059968;28;19935;-51
2022/04/16 13:02:16;;;;;;;;;;;19.70;30.00;;;;;;5057966;28;20363;-54
2022/04/16 13:04:43;;;;;;;;;;;19.60;28.70;;;;;;5061713;28;19925;-53
2022/04/16 13:07:10;;;;;;;;;;;19.60;28.40;;;;;;5069896;28;20015;-56
2022/04/16 13:09:36;;;;;;;;;;;19.40;28.70;;;;;;5066179;28;19990;-50
2022/04/16 13:12:03;;;;;;;;;;;19.40;28.70;;;;;;5060970;28;19956;-55
2022/04/16 13:14:31;;;;;;;;;;;19.30;28.60;;;;;;5054280;28;19921;-52
2022/04/16 13:16:58;;;;;;;;;;;19.20;27.80;;;;;;5062537;28;19946;-54
2022/04/16 13:19:25;;;;;;;;;;;19.20;27.40;;;;;;5065450;28;19920;-53
2022/04/16 13:21:53;;;;;;;;;;;19.10;27.40;;;;;;5063303;28;19994;-53
2022/04/16 13:24:20;;;;;;;;;;;19.00;27.80;;;;;;5078095;28;19924;-52
2022/04/16 13:26:47;;;;;;;;;;;18.90;27.80;;;;;;5056227;28;19925;-53
2022/04/16 13:29:15;;;;;;;;;;;18.90;27.80;;;;;;5079051;28;19947;-53
2022/04/16 13:31:44;;;;;;;;;;;18.80;28.10;;;;;;5066891;28;19920;-53
2022/04/16 13:34:10;;;;;;;;;;;18.80;28.50;;;;;;5062335;28;19920;-56
2022/04/16 13:36:37;;;;;;;;;;;18.80;28.30;;;;;;5058550;28;19920;-54
2022/04/16 13:39:05;;;;;;;;;;;18.80;28.20;;;;;;5054722;28;19930;-55
2022/04/16 13:41:40;;;;;;;;;;;18.80;28.30;;;;;;5077501;28;19936;-52
2022/04/16 13:44:08;;;;;;;;;;;18.80;27.90;;;;;;5055292;28;19960;-55
2022/04/16 13:46:35;;;;;;;;;;;18.70;27.60;;;;;;5079700;28;19920;-53
2022/04/16 13:49:04;;;;;;;;;;;18.70;27.90;;;;;;5080768;28;20018;-55
2022/04/16 13:51:31;;;;;;;;;;;18.70;28.10;;;;;;5085134;28;19943;-55
2022/04/16 13:53:58;;;;;;;;;;;18.60;27.70;;;;;;5056130;28;19924;-52
2022/04/16 13:56:25;;;;;;;;;;;18.60;27.90;;;;;;5070173;28;19991;-53
2022/04/16 13:58:52;;;;;;;;;;;18.60;28.10;;;;;;5069507;28;20376;-57
2022/04/16 14:01:20;;;;;;;;;;;18.60;28.00;;;;;;5064273;28;19978;-53
2022/04/16 14:03:48;;;;;;;;;;;18.50;27.60;;;;;;5064023;28;20021;-54
2022/04/16 14:06:17;;;;;;;;;;;18.50;27.70;;;;;;5071085;28;19921;-49
2022/04/16 14:08:44;;;;;;;;;;;18.50;28.10;;;;;;5068784;28;20254;-52
2022/04/16 14:11:10;;;;;;;;;;;18.50;28.20;;;;;;5074016;28;19962;-51
2022/04/16 14:13:39;;;;;;;;;;;18.40;28.20;;;;;;5069788;28;20244;-55
2022/04/16 14:16:06;;;;;;;;;;;18.40;27.80;;;;;;5054208;28;20015;-56
2022/04/16 14:18:32;;;;;;;;;;;18.40;27.80;;;;;;5053770;28;19920;-54
2022/04/16 14:20:59;;;;;;;;;;;18.40;27.60;;;;;;5056352;28;19946;-52
2022/04/16 14:23:27;;;;;;;;;;;18.40;27.70;;;;;;5059907;28;19921;-55
2022/04/16 14:25:54;;;;;;;;;;;18.30;27.80;;;;;;5057961;28;19931;-52
2022/04/16 14:28:21;;;;;;;;;;;18.30;27.80;;;;;;5067152;28;19921;-51
2022/04/16 14:30:48;;;;;;;;;;;18.30;27.90;;;;;;5069873;28;20003;-51
2022/04/16 14:33:14;;;;;;;;;;;18.30;28.20;;;;;;5058193;28;20405;-55
2022/04/16 14:35:41;;;;;;;;;;;18.30;27.90;;;;;;5069832;28;19920;-53
2022/04/16 14:38:12;;;;;;;;;;;18.30;27.60;;;;;;5071398;28;20330;-52